createdAt,value
2022-10-17T00:01:41.349Z,1.50
2022-10-17T00:04:08.508Z,1.33
2022-10-17T00:06:35.610Z,0.93
2022-10-17T00:09:02.791Z,1.30
2022-10-17T00:11:29.924Z,1.20
2022-10-17T00:13:57.181Z,1.20
2022-10-17T00:16:32.965Z,1.30
2022-10-17T00:19:00.714Z,1.40
2022-10-17T00:21:27.861Z,1.17
2022-10-17T00:23:55.035Z,1.40
2022-10-17T00:26:22.433Z,1.00
2022-10-17T00:28:50.389Z,1.33
2022-10-17T00:31:18.476Z,1.00
2022-10-17T00:33:45.682Z,1.20
2022-10-17T00:36:14.038Z,1.10
2022-10-17T00:38:42.109Z,1.07
2022-10-17T00:41:09.675Z,1.20
2022-10-17T00:43:59.891Z,1.20
2022-10-17T00:46:34.713Z,1.30
2022-10-17T00:49:07.550Z,1.30
2022-10-17T00:51:41.100Z,1.37
2022-10-17T00:54:08.244Z,1.30
2022-10-17T00:56:35.961Z,1.40
2022-10-17T00:59:03.197Z,1.00
2022-10-17T01:01:30.671Z,1.10
2022-10-17T01:03:57.897Z,1.10
2022-10-17T01:06:25.029Z,1.23
2022-10-17T01:08:52.609Z,1.00
2022-10-17T01:11:28.544Z,1.00
2022-10-17T01:14:13.304Z,1.00
2022-10-17T01:16:56.835Z,1.23
2022-10-17T01:19:35.038Z,1.30
2022-10-17T01:22:07.126Z,1.07
2022-10-17T01:24:52.813Z,1.57
2022-10-17T01:27:35.066Z,1.43
2022-10-17T01:30:29.856Z,1.10
2022-10-17T01:33:11.311Z,1.10
2022-10-17T01:35:55.408Z,1.00
2022-10-17T01:38:25.804Z,1.43
2022-10-17T01:40:57.549Z,1.00
2022-10-17T01:43:28.262Z,1.23
2022-10-17T01:46:33.155Z,0.90
2022-10-17T01:49:01.073Z,0.93
2022-10-17T01:51:38.904Z,1.10
2022-10-17T01:54:13.452Z,1.10
2022-10-17T01:56:40.891Z,1.17
2022-10-17T01:59:15.307Z,1.20
2022-10-17T02:01:43.426Z,1.00
2022-10-17T02:04:10.537Z,1.00
2022-10-17T02:06:38.088Z,0.90
2022-10-17T02:09:25.145Z,1.00
2022-10-17T02:12:16.511Z,1.40
2022-10-17T02:14:46.664Z,1.03
2022-10-17T02:17:36.712Z,1.03
2022-10-17T02:20:31.172Z,1.10
2022-10-17T02:23:11.081Z,1.00
2022-10-17T02:25:38.251Z,1.33
2022-10-17T02:28:21.414Z,1.50
2022-10-17T02:31:41.464Z,1.30
2022-10-17T02:34:28.670Z,1.10
2022-10-17T02:36:57.969Z,1.17
2022-10-17T02:39:25.304Z,0.70
2022-10-17T02:41:53.112Z,1.20
2022-10-17T02:44:20.405Z,1.50
2022-10-17T02:46:49.782Z,1.10
2022-10-17T02:49:25.110Z,1.20
2022-10-17T02:51:55.306Z,1.30
2022-10-17T02:54:25.423Z,1.50
2022-10-17T02:56:59.470Z,1.50
2022-10-17T02:59:26.842Z,1.00
2022-10-17T03:01:54.315Z,1.33
2022-10-17T03:04:21.539Z,0.83
2022-10-17T03:06:49.417Z,1.10
2022-10-17T03:09:16.662Z,1.40
2022-10-17T03:11:43.792Z,1.47
2022-10-17T03:14:10.998Z,1.83
2022-10-17T03:16:38.224Z,9.87
2022-10-17T03:19:05.417Z,2.53
2022-10-17T03:21:32.606Z,2.37
2022-10-17T03:23:59.852Z,1.60
2022-10-17T03:26:27.009Z,2.60
2022-10-17T03:28:54.633Z,3.17
2022-10-17T03:31:22.307Z,4.23
2022-10-17T03:33:49.562Z,4.63
2022-10-17T03:36:18.075Z,3.60
2022-10-17T03:38:45.514Z,5.30
2022-10-17T03:41:12.999Z,5.37
2022-10-17T03:43:40.308Z,4.10
2022-10-17T03:46:07.590Z,2.90
2022-10-17T03:48:34.796Z,3.23
2022-10-17T03:51:05.878Z,3.13
2022-10-17T03:53:33.287Z,3.73
2022-10-17T03:56:10.756Z,3.10
2022-10-17T03:58:38.103Z,2.10
2022-10-17T04:01:09.169Z,1.80
2022-10-17T04:03:36.965Z,2.50
2022-10-17T04:06:04.836Z,2.00
2022-10-17T04:08:32.319Z,2.10
2022-10-17T04:11:07.231Z,1.90
2022-10-17T04:13:34.690Z,2.80
2022-10-17T04:16:04.828Z,2.40
2022-10-17T04:18:32.065Z,4.77
2022-10-17T04:21:01.280Z,4.13
2022-10-17T04:23:28.453Z,2.97
2022-10-17T04:25:59.145Z,2.53
2022-10-17T04:28:26.636Z,1.93
2022-10-17T04:31:04.796Z,3.43
2022-10-17T04:33:32.431Z,4.70
2022-10-17T04:36:04.625Z,3.03
2022-10-17T04:38:32.017Z,2.63
2022-10-17T04:41:03.426Z,2.30
2022-10-17T04:43:33.599Z,3.30
2022-10-17T04:46:01.669Z,2.53
2022-10-17T04:48:29.119Z,2.23
2022-10-17T04:51:11.227Z,2.03
2022-10-17T04:53:38.816Z,2.63
2022-10-17T04:56:13.915Z,3.57
2022-10-17T04:58:41.465Z,3.57
2022-10-17T05:01:09.921Z,4.50
2022-10-17T05:03:37.455Z,4.57
2022-10-17T05:06:09.196Z,3.70
2022-10-17T05:08:36.767Z,3.97
2022-10-17T05:11:03.943Z,3.40
2022-10-17T05:13:31.182Z,2.53
2022-10-17T05:16:01.732Z,3.33
2022-10-17T05:18:29.553Z,3.20
2022-10-17T05:20:56.607Z,3.20
2022-10-17T05:23:23.803Z,2.80
2022-10-17T05:25:57.016Z,3.40
2022-10-17T05:28:24.369Z,2.73
2022-10-17T05:30:51.496Z,2.50
2022-10-17T05:33:18.710Z,2.37
2022-10-17T05:35:46.011Z,2.10
2022-10-17T05:38:13.198Z,2.63
2022-10-17T05:40:40.410Z,3.57
2022-10-17T05:43:07.829Z,3.00
2022-10-17T05:45:35.648Z,2.33
2022-10-17T05:48:02.786Z,2.90
2022-10-17T05:50:30.030Z,2.83
2022-10-17T05:52:57.582Z,2.53
2022-10-17T05:55:24.841Z,2.30
2022-10-17T05:57:54.162Z,2.80
2022-10-17T06:00:21.617Z,2.57
2022-10-17T06:02:48.780Z,2.40
2022-10-17T06:05:16.154Z,3.87
2022-10-17T06:07:43.340Z,4.37
2022-10-17T06:10:16.729Z,5.23
2022-10-17T06:12:44.091Z,2.97
2022-10-17T06:15:11.650Z,13.60
2022-10-17T06:17:39.075Z,7.13
2022-10-17T06:20:06.863Z,5.53
2022-10-17T06:22:34.255Z,3.90
2022-10-17T06:25:13.615Z,8.20
2022-10-17T06:27:40.864Z,7.10
2022-10-17T06:30:08.735Z,5.30
2022-10-17T06:32:35.921Z,3.90
2022-10-17T06:35:03.071Z,6.43
2022-10-17T06:37:36.293Z,4.23
2022-10-17T06:40:04.777Z,4.50
2022-10-17T06:42:32.218Z,3.30
2022-10-17T06:44:59.378Z,5.33
2022-10-17T06:47:26.610Z,4.13
2022-10-17T06:49:53.701Z,4.97
2022-10-17T06:52:20.766Z,4.23
2022-10-17T06:54:47.958Z,8.03
2022-10-17T06:57:15.111Z,3.93
2022-10-17T06:59:42.250Z,3.70
2022-10-17T07:02:10.683Z,3.43
2022-10-17T07:04:37.928Z,3.63
2022-10-17T07:07:05.380Z,4.33
2022-10-17T07:09:33.097Z,3.70
2022-10-17T07:12:00.583Z,3.77
2022-10-17T07:14:32.241Z,3.67
2022-10-17T07:16:59.769Z,5.10
2022-10-17T07:19:29.819Z,3.70
2022-10-17T07:21:57.000Z,4.23
2022-10-17T07:24:24.012Z,6.03
2022-10-17T07:26:51.053Z,3.50
2022-10-17T07:29:18.265Z,4.70
2022-10-17T07:31:48.845Z,4.50
2022-10-17T07:34:15.962Z,3.23
2022-10-17T07:36:43.176Z,3.43
2022-10-17T07:39:10.306Z,4.20
2022-10-17T07:41:37.996Z,3.70
2022-10-17T07:44:05.412Z,4.60
2022-10-17T07:46:32.484Z,4.70
2022-10-17T07:48:59.513Z,5.97
2022-10-17T07:51:27.966Z,3.70
2022-10-17T07:53:55.198Z,4.00
2022-10-17T07:56:24.772Z,5.00
2022-10-17T07:58:52.646Z,4.40
2022-10-17T08:01:19.684Z,3.63
2022-10-17T08:03:47.233Z,4.00
2022-10-17T08:06:14.557Z,4.77
2022-10-17T08:08:42.203Z,3.37
2022-10-17T08:11:11.166Z,3.80
2022-10-17T08:13:38.526Z,3.97
2022-10-17T08:16:10.671Z,2.90
2022-10-17T08:18:38.767Z,2.80
2022-10-17T08:21:08.855Z,4.07
2022-10-17T08:23:36.199Z,3.00
2022-10-17T08:26:04.881Z,3.00
2022-10-17T08:28:34.489Z,2.60
2022-10-17T08:31:15.015Z,3.77
2022-10-17T08:33:42.375Z,3.03
2022-10-17T08:36:09.672Z,2.60
2022-10-17T08:38:38.415Z,2.80
2022-10-17T08:41:12.315Z,2.53
2022-10-17T08:43:51.436Z,2.60
2022-10-17T08:46:18.400Z,2.30
2022-10-17T08:48:46.706Z,2.97
2022-10-17T08:51:34.373Z,2.63
2022-10-17T08:54:11.799Z,2.97
2022-10-17T08:56:50.197Z,2.53
2022-10-17T08:59:27.925Z,2.30
2022-10-17T09:02:44.631Z,3.43
2022-10-17T09:05:26.856Z,2.80
2022-10-17T09:08:02.854Z,2.25
2022-10-17T09:10:54.484Z,2.43
2022-10-17T09:16:30.326Z,2.20
2022-10-17T09:18:57.423Z,2.58
2022-10-17T09:21:33.431Z,2.10
2022-10-17T09:24:09.317Z,2.25
2022-10-17T09:26:38.964Z,2.03
2022-10-17T09:29:11.053Z,2.33
2022-10-17T09:31:44.093Z,2.55
2022-10-17T09:34:11.439Z,1.80
2022-10-17T09:36:39.876Z,2.50
2022-10-17T09:39:15.044Z,2.42
2022-10-17T09:41:51.325Z,2.05
2022-10-17T09:44:22.667Z,2.50
2022-10-17T09:47:04.039Z,1.83
2022-10-17T09:49:39.415Z,2.38
2022-10-17T09:52:27.120Z,2.50
2022-10-17T09:55:06.665Z,2.00
2022-10-17T09:57:57.037Z,2.50
2022-10-17T10:00:32.186Z,1.90
2022-10-17T10:03:09.790Z,1.77
2022-10-17T10:05:37.051Z,3.22
2022-10-17T10:08:14.768Z,2.90
2022-10-17T10:10:44.937Z,2.10
2022-10-17T10:13:15.007Z,2.13
2022-10-17T10:15:46.262Z,2.15
2022-10-17T10:18:25.501Z,2.20
2022-10-17T10:21:07.603Z,1.95
2022-10-17T10:23:36.074Z,2.28
2022-10-17T10:26:04.518Z,2.15
2022-10-17T10:28:33.770Z,1.90
2022-10-17T10:31:05.945Z,2.20
2022-10-17T10:33:34.431Z,1.90
2022-10-17T10:36:03.531Z,1.92
2022-10-17T10:38:32.199Z,1.80
2022-10-17T10:41:04.599Z,2.20
2022-10-17T10:43:36.001Z,1.42
2022-10-17T10:46:17.089Z,2.05
2022-10-17T10:48:51.984Z,2.00
2022-10-17T10:51:22.319Z,2.60
2022-10-17T10:53:58.901Z,2.00
2022-10-17T10:56:32.221Z,2.25
2022-10-17T10:59:20.648Z,1.73
2022-10-17T11:02:24.730Z,2.10
2022-10-17T11:04:58.474Z,2.10
2022-10-17T11:07:34.576Z,1.77
2022-10-17T11:10:25.610Z,1.90
2022-10-17T11:13:23.640Z,1.80
2022-10-17T11:15:55.255Z,1.88
2022-10-17T11:18:45.899Z,2.13
2022-10-17T11:21:18.554Z,1.92
2022-10-17T11:23:56.803Z,2.63
2022-10-17T11:26:28.823Z,2.60
2022-10-17T11:28:56.906Z,3.22
2022-10-17T11:31:25.982Z,3.05
2022-10-17T11:33:55.047Z,2.58
2022-10-17T11:36:28.759Z,2.83
2022-10-17T11:39:22.222Z,3.25
2022-10-17T11:42:03.522Z,4.07
2022-10-17T11:44:39.063Z,3.65
2022-10-17T11:47:27.496Z,3.85
2022-10-17T11:53:13.206Z,3.20
2022-10-17T11:55:40.286Z,3.92
2022-10-17T11:58:26.767Z,3.70
2022-10-17T12:01:11.614Z,3.60
2022-10-17T12:04:13.429Z,3.95
2022-10-17T12:07:17.828Z,3.25
2022-10-17T12:10:04.161Z,4.70
2022-10-17T12:12:33.467Z,3.95
2022-10-17T12:15:26.457Z,4.95
2022-10-17T12:18:03.142Z,4.78
2022-10-17T12:20:37.247Z,5.18
2022-10-17T12:23:05.456Z,5.13
2022-10-17T12:25:42.675Z,5.72
2022-10-17T12:28:17.500Z,5.65
2022-10-17T12:30:53.668Z,7.35
2022-10-17T12:33:39.738Z,5.63
2022-10-17T12:36:19.208Z,6.72
2022-10-17T12:38:50.413Z,6.60
2022-10-17T12:41:17.863Z,17.05
2022-10-17T12:43:45.762Z,6.68
2022-10-17T12:46:12.910Z,5.68
2022-10-17T12:48:39.994Z,6.57
2022-10-17T12:51:34.826Z,6.68
2022-10-17T12:54:12.377Z,7.15
2022-10-17T12:56:48.925Z,6.55
2022-10-17T12:59:26.399Z,6.40
2022-10-17T13:01:59.296Z,7.13
2022-10-17T13:04:26.798Z,10.18
2022-10-17T13:06:56.168Z,16.30
2022-10-17T13:09:34.236Z,17.98
2022-10-17T13:12:04.869Z,19.38
2022-10-17T13:14:32.387Z,20.08
2022-10-17T13:17:01.583Z,17.27
2022-10-17T13:19:42.593Z,20.85
2022-10-17T13:22:18.536Z,20.50
2022-10-17T13:24:45.648Z,24.20
2022-10-17T13:27:29.216Z,21.73
2022-10-17T13:29:57.560Z,20.75
2022-10-17T13:32:25.601Z,21.65
2022-10-17T13:35:12.596Z,22.50
2022-10-17T13:37:40.552Z,22.92
2022-10-17T13:40:30.765Z,22.00
2022-10-17T13:42:56.807Z,21.30
2022-10-17T13:45:32.090Z,22.42
2022-10-17T13:48:01.669Z,21.77
2022-10-17T13:50:44.671Z,21.88
2022-10-17T13:53:30.950Z,24.88
2022-10-17T13:56:26.805Z,27.08
2022-10-17T13:58:57.480Z,26.90
2022-10-17T14:01:27.343Z,27.83
2022-10-17T14:04:07.895Z,26.95
2022-10-17T14:06:43.954Z,26.05
2022-10-17T14:09:24.649Z,26.40
2022-10-17T14:12:19.039Z,25.08
2022-10-17T14:17:38.840Z,26.60
2022-10-17T14:20:26.595Z,27.52
2022-10-17T14:23:23.382Z,27.73
2022-10-17T14:25:40.926Z,27.77
2022-10-17T14:28:09.665Z,31.15
2022-10-17T14:31:02.444Z,30.95
2022-10-17T14:33:32.422Z,32.13
2022-10-17T14:36:00.542Z,33.15
2022-10-17T14:38:28.316Z,33.83
2022-10-17T14:41:42.005Z,34.10
2022-10-17T14:44:17.205Z,33.80
2022-10-17T14:46:49.570Z,32.95
2022-10-17T14:49:24.227Z,34.08
2022-10-17T14:52:24.351Z,35.05
2022-10-17T14:54:51.415Z,36.00
2022-10-17T14:57:20.069Z,37.30
2022-10-17T14:59:55.624Z,37.28
2022-10-17T15:02:24.563Z,35.30
2022-10-17T15:04:51.781Z,36.20
2022-10-17T15:07:19.197Z,35.58
2022-10-17T15:09:48.049Z,34.35
2022-10-17T15:12:17.137Z,37.50
2022-10-17T15:14:44.498Z,35.67
2022-10-17T15:17:16.755Z,38.20
2022-10-17T15:19:43.979Z,36.70
2022-10-17T15:22:11.191Z,35.83
2022-10-17T15:24:38.397Z,38.72
2022-10-17T15:27:14.756Z,36.75
2022-10-17T15:29:41.869Z,36.72
2022-10-17T15:32:08.987Z,37.40
2022-10-17T15:34:36.259Z,36.75
2022-10-17T15:37:03.308Z,36.87
2022-10-17T15:39:30.418Z,35.80
2022-10-17T15:41:57.614Z,36.37
2022-10-17T15:44:24.800Z,36.27
2022-10-17T15:46:51.884Z,38.30
2022-10-17T15:49:19.963Z,38.30
2022-10-17T15:51:51.662Z,37.03
2022-10-17T15:54:22.638Z,36.23
2022-10-17T15:56:53.328Z,34.23
2022-10-17T15:59:22.679Z,35.97
2022-10-17T16:01:49.855Z,36.90
2022-10-17T16:04:18.580Z,35.67
2022-10-17T16:06:45.803Z,36.10
2022-10-17T16:09:13.150Z,35.17
2022-10-17T16:11:42.152Z,35.27
2022-10-17T16:14:16.044Z,33.63
2022-10-17T16:16:43.238Z,33.43
2022-10-17T16:19:10.298Z,33.17
2022-10-17T16:21:39.488Z,36.20
2022-10-17T16:24:06.972Z,35.23
2022-10-17T16:26:34.338Z,35.00
2022-10-17T16:29:03.599Z,33.83
2022-10-17T16:31:35.619Z,34.10
2022-10-17T16:34:03.657Z,33.40
2022-10-17T16:36:30.754Z,32.00
2022-10-17T16:38:57.963Z,32.70
2022-10-17T16:41:29.353Z,32.13
2022-10-17T16:43:58.696Z,30.23
2022-10-17T16:46:26.728Z,29.20
2022-10-17T16:48:53.815Z,31.90
2022-10-17T16:51:21.137Z,29.27
2022-10-17T16:53:50.633Z,28.83
2022-10-17T16:56:19.304Z,27.83
2022-10-17T16:58:46.759Z,27.60
2022-10-17T17:01:15.805Z,26.93
2022-10-17T17:03:43.555Z,28.73
2022-10-17T17:06:13.814Z,28.97
2022-10-17T17:08:41.937Z,29.40
2022-10-17T17:11:13.578Z,26.63
2022-10-17T17:13:41.510Z,26.13
2022-10-17T17:16:13.614Z,28.30
2022-10-17T17:18:41.132Z,27.37
2022-10-17T17:21:09.347Z,26.43
2022-10-17T17:23:37.812Z,28.80
2022-10-17T17:26:07.347Z,30.00
2022-10-17T17:28:34.957Z,24.97
2022-10-17T17:31:02.157Z,26.00
2022-10-17T17:33:30.385Z,23.27
2022-10-17T17:35:58.670Z,22.87
2022-10-17T17:38:26.226Z,23.70
2022-10-17T17:40:53.333Z,25.23
2022-10-17T17:43:20.712Z,24.40
2022-10-17T17:45:47.967Z,25.73
2022-10-17T17:48:15.208Z,23.50
2022-10-17T17:50:42.826Z,21.67
2022-10-17T17:53:10.348Z,21.73
2022-10-17T17:55:37.793Z,23.67
2022-10-17T17:58:05.235Z,22.27
2022-10-17T18:00:32.425Z,23.27
2022-10-17T18:02:59.522Z,22.10
2022-10-17T18:05:27.156Z,19.50
2022-10-17T18:07:54.362Z,43.57
2022-10-17T18:10:21.470Z,32.67
2022-10-17T18:12:48.663Z,21.10
2022-10-17T18:15:15.821Z,22.20
2022-10-17T18:17:43.031Z,22.90
2022-10-17T18:20:10.607Z,19.73
2022-10-17T18:22:37.612Z,19.17
2022-10-17T18:25:05.769Z,20.60
2022-10-17T18:27:33.008Z,18.67
2022-10-17T18:30:00.108Z,17.97
2022-10-17T18:32:27.677Z,18.53
2022-10-17T18:34:55.129Z,16.00
2022-10-17T18:37:22.191Z,16.13
2022-10-17T18:39:51.705Z,17.00
2022-10-17T18:42:19.148Z,18.20
2022-10-17T18:44:47.925Z,17.47
2022-10-17T18:47:15.094Z,17.30
2022-10-17T18:49:43.075Z,16.07
2022-10-17T18:52:10.264Z,16.47
2022-10-17T18:54:37.465Z,15.67
2022-10-17T18:57:04.768Z,17.53
2022-10-17T18:59:31.946Z,16.97
2022-10-17T19:01:59.154Z,16.57
2022-10-17T19:04:26.588Z,18.53
2022-10-17T19:06:53.591Z,17.23
2022-10-17T19:09:20.806Z,18.53
2022-10-17T19:11:47.889Z,16.93
2022-10-17T19:14:15.146Z,14.97
2022-10-17T19:16:48.925Z,13.43
2022-10-17T19:19:23.765Z,16.90
2022-10-17T19:21:51.389Z,15.63
2022-10-17T19:24:23.271Z,12.50
2022-10-17T19:26:51.279Z,17.53
2022-10-17T19:29:18.713Z,15.80
2022-10-17T19:31:46.100Z,16.37
2022-10-17T19:34:13.981Z,15.73
2022-10-17T19:36:41.311Z,16.17
2022-10-17T19:39:14.239Z,14.57
2022-10-17T19:41:45.455Z,11.33
2022-10-17T19:44:12.692Z,9.23
2022-10-17T19:46:39.988Z,10.37
2022-10-17T19:49:07.193Z,13.60
2022-10-17T19:51:34.494Z,14.00
2022-10-17T19:54:02.156Z,14.03
2022-10-17T19:56:31.142Z,12.40
2022-10-17T19:58:58.333Z,14.33
2022-10-17T20:01:28.378Z,13.13
2022-10-17T20:03:55.686Z,12.23
2022-10-17T20:06:22.905Z,13.90
2022-10-17T20:08:50.368Z,14.67
2022-10-17T20:11:19.966Z,12.43
2022-10-17T20:13:47.033Z,13.40
2022-10-17T20:16:16.353Z,12.90
2022-10-17T20:18:44.064Z,13.00
2022-10-17T20:21:12.911Z,13.83
2022-10-17T20:23:40.498Z,12.73
2022-10-17T20:26:26.013Z,12.87
2022-10-17T20:29:03.073Z,11.60
2022-10-17T20:31:30.298Z,11.37
2022-10-17T20:33:58.244Z,13.50
2022-10-17T20:36:25.732Z,12.67
2022-10-17T20:38:56.864Z,11.30
2022-10-17T20:41:24.132Z,13.30
2022-10-17T20:43:51.845Z,13.63
2022-10-17T20:46:34.953Z,11.67
2022-10-17T20:49:03.234Z,12.50
2022-10-17T20:51:30.396Z,12.53
2022-10-17T20:56:30.509Z,12.90
2022-10-17T20:59:03.400Z,12.43
2022-10-17T21:01:31.374Z,12.43
2022-10-17T21:04:06.076Z,11.53
2022-10-17T21:06:38.423Z,10.40
2022-10-17T21:09:05.976Z,9.57
2022-10-17T21:11:33.179Z,9.10
2022-10-17T21:14:04.923Z,8.30
2022-10-17T21:16:32.867Z,9.30
2022-10-17T21:19:00.206Z,10.57
2022-10-17T21:21:32.776Z,10.00
2022-10-17T21:24:01.942Z,10.27
2022-10-17T21:26:29.388Z,9.17
2022-10-17T21:28:57.787Z,10.10
2022-10-17T21:31:26.252Z,10.37
2022-10-17T21:33:57.759Z,9.77
2022-10-17T21:36:25.459Z,10.10
2022-10-17T21:38:53.844Z,10.87
2022-10-17T21:41:23.373Z,10.47
2022-10-17T21:44:04.185Z,9.30
2022-10-17T21:46:31.835Z,10.20
2022-10-17T21:48:59.750Z,9.80
2022-10-17T21:51:27.192Z,10.57
2022-10-17T21:53:55.422Z,8.83
2022-10-17T21:56:24.124Z,9.00
2022-10-17T21:58:51.845Z,9.57
2022-10-17T22:01:26.210Z,9.73
2022-10-17T22:03:55.752Z,9.80
2022-10-17T22:06:39.246Z,8.97
2022-10-17T22:09:17.807Z,8.40
2022-10-17T22:11:46.565Z,8.63
2022-10-17T22:14:17.038Z,8.20
2022-10-17T22:16:45.442Z,8.17
2022-10-17T22:19:13.245Z,8.17
2022-10-17T22:21:40.545Z,9.37
2022-10-17T22:24:10.335Z,10.93
2022-10-17T22:26:37.904Z,9.33
2022-10-17T22:29:06.197Z,8.70
2022-10-17T22:31:33.659Z,6.80
2022-10-17T22:34:00.808Z,7.63
2022-10-17T22:36:28.035Z,8.20
2022-10-17T22:38:55.213Z,8.43
2022-10-17T22:41:22.422Z,7.73
2022-10-17T22:43:49.474Z,7.20
2022-10-17T22:46:17.050Z,8.80
2022-10-17T22:48:44.569Z,8.20
2022-10-17T22:51:12.002Z,7.57
2022-10-17T22:53:39.346Z,7.97
2022-10-17T22:56:11.442Z,7.90
2022-10-17T22:58:38.668Z,7.17
2022-10-17T23:01:06.587Z,7.80
2022-10-17T23:03:33.908Z,8.33
2022-10-17T23:06:01.145Z,7.00
2022-10-17T23:08:28.584Z,7.50
2022-10-17T23:10:55.785Z,7.73
2022-10-17T23:13:22.962Z,7.60
2022-10-17T23:15:51.827Z,7.07
2022-10-17T23:18:19.074Z,7.40
2022-10-17T23:20:46.225Z,6.70
2022-10-17T23:23:13.354Z,7.47
2022-10-17T23:25:40.487Z,7.57
2022-10-17T23:28:09.040Z,6.57
2022-10-17T23:30:36.753Z,6.50
2022-10-17T23:33:04.246Z,7.67
2022-10-17T23:35:31.735Z,6.80
2022-10-17T23:37:58.789Z,6.67
2022-10-17T23:40:25.935Z,7.10
2022-10-17T23:42:53.097Z,6.10
2022-10-17T23:45:20.323Z,6.37
2022-10-17T23:47:47.732Z,6.40
2022-10-17T23:50:15.064Z,5.53
2022-10-17T23:52:42.186Z,6.50
2022-10-17T23:55:09.853Z,5.67
2022-10-17T23:57:37.136Z,6.10
